Terminal Aerodrome Forecast
Issued by NWS Charleston, WV

Current Version | Previous Version | Graphics & Text | Print | Product List | Glossary Off
Versions: 1 2 3 4 5 6 7 8 9 10 11 12 13 14 15 16 17 18 19 20 21 22

000
FTUS41 KRLX 200500
TAFPKB
TAF
KPKB 200538Z 2006/2106 16007KT P6SM SCT040
     FM200900 16005KT P6SM SCT025
     FM201300 18006KT P6SM SCT040
     FM201800 20007KT P6SM SCT040
     FM210200 VRB03KT P6SM FEW050=

USA.gov is the U.S. government's official web portal to all federal, state and local government web resources and services.